METAR AND TAF INFORMATION
METAR FOR KGYR
ADDS - METARS form results

(1515 UTC 04 July 2020)
Data provider http://aviationweather.gov/metar/data/
 
METAR text: KGYR 041447Z 24009KT 10SM SKC 33/14 A2992
Conditions at: KGYR (GOODYEAR MUNICIP, AZ, US) observed 1447 UTC 04 July 2020
Temperature: 33.0°C (91°F)
Dewpoint: 14.0°C (57°F) [RH = 32%]
Pressure (altimeter): 29.92 inches Hg (1013.3 mb)
Winds: from the WSW (240 degrees) at 10 MPH (9 knots; 4.6 m/s)
Visibility: 10 or more miles (16+ km)
Ceiling: at least 12,000 feet AGL
Clouds: clear skies
Weather: no significant weather observed at this time

 AIRPORT MAP

 RUNWAY INFORMATION
Runway 03 Runway length 8500 ft Runway width 150 ft
Runway elevation 968 ft Runway displaced threshold 0 ft Runway heading 38
Runway 21 Runway length 8500 ft Runway width 150 ft
Runway elevation 968 ft Runway displaced threshold 2100 ft Runway heading 218

 AIRPORT FREQUENCIES
Type ATIS Name ATIS Frequency 118.35 MHZ
Type CTAF Name CTAF Frequency 120.1 MHZ
Type GND Name GND Frequency 121.7 MHZ
Type RDO Name PRESCOTT R Frequency 122.6 MHZ
Type TWR Name GOODYEAR T Frequency 120.1 MHZ
Type UNIC Name UNICOM Frequency 122.95 MHZ

 AIRPORT NEAR NAVIGATION AIDS


Powered by Virtual Airlines Manager